Date,TemperatureHighF,TemperatureAvgF,TemperatureLowF,DewpointHighF,DewpointAvgF,DewpointLowF,HumidityHigh,HumidityAvg,HumidityLow,PressureMaxIn,PressureMinIn,WindSpeedMaxMPH,WindSpeedAvgMPH,GustSpeedMaxMPH,PrecipitationSumIn
2012-9-12,80.2,75.7,71.3,64.0,63.0,62.0,76,65,56,29.88,29.83,7,2,10,0.00
2012-9-13,94.0,80.1,63.9,65.0,59.6,51.0,90,54,28,29.95,29.81,18,4,25,0.00
2012-9-14,86.1,78.0,70.5,52.0,50.0,47.0,49,38,29,30.00,29.89,22,10,31,0.00
2012-9-15,89.9,78.1,66.1,50.0,44.6,38.0,47,32,17,30.02,29.89,24,6,25,0.00
2012-9-16,94.6,76.7,56.9,50.0,45.1,41.0,69,37,17,30.01,29.86,10,2,16,0.00
2012-9-17,92.7,77.0,58.2,56.0,50.2,45.0,65,41,24,29.95,29.80,12,2,16,0.00
2012-9-18,97.1,80.6,62.7,59.0,51.5,43.0,72,40,19,29.93,29.80,7,2,10,0.00
2012-9-19,98.7,81.2,60.9,52.0,41.2,27.0,63,30,8,29.91,29.77,7,2,15,0.00
2012-9-20,99.1,83.2,67.9,52.0,42.9,36.0,50,27,12,29.88,29.75,8,2,12,0.00
2012-9-21,100.8,82.2,66.1,50.0,42.8,35.0,52,28,10,29.85,29.71,7,2,13,0.00
2012-9-22,103.9,83.2,67.1,49.0,43.0,32.0,51,28,8,29.86,29.75,17,2,18,0.00
2012-9-23,101.9,83.2,63.9,53.0,42.2,32.0,52,28,10,29.89,29.78,8,2,13,0.00
2012-9-24,97.4,81.3,63.3,51.0,43.5,39.0,51,29,14,29.89,29.73,10,3,15,0.00
2012-9-25,95.0,79.9,61.5,51.0,46.4,43.0,56,33,20,29.82,29.68,11,2,17,0.00
2012-9-26,93.5,79.9,65.0,55.0,47.2,39.0,59,34,16,29.80,29.69,13,2,14,0.00
2012-9-27,93.1,78.5,62.0,50.0,45.4,41.0,54,33,17,29.89,29.77,8,2,11,0.00
2012-9-28,87.4,77.1,69.8,54.0,50.1,47.0,53,39,27,29.86,29.75,10,3,17,0.00
2012-9-29,93.2,79.2,62.6,55.0,49.4,46.0,64,38,21,29.93,29.78,12,3,15,0.00
2012-9-30,97.1,79.0,58.6,50.0,41.5,29.0,62,31,9,29.91,29.76,10,2,26,0.00
2012-10-1,98.4,79.1,57.7,45.0,36.1,29.0,48,25,9,29.98,29.74,7,2,12,0.00
2012-10-2,99.2,79.1,58.8,45.0,36.5,30.0,53,25,9,30.03,29.91,12,3,17,0.00
2012-10-3,97.0,78.9,56.9,44.0,35.1,30.0,47,24,10,30.11,29.99,14,3,15,0.00
2012-10-4,95.1,78.9,58.0,44.0,38.7,35.0,47,26,13,30.17,30.05,14,3,18,0.00
2012-10-5,92.2,73.9,55.1,45.0,37.1,31.0,58,31,12,30.15,29.99,8,2,13,0.00
2012-10-6,90.4,72.0,56.4,43.0,35.2,30.0,49,29,12,30.07,29.93,7,2,11,0.00
2012-10-7,90.3,74.4,58.4,46.0,39.1,35.0,52,30,15,30.05,29.93,6,2,11,0.00
2012-10-8,90.8,73.6,56.1,44.0,38.7,35.0,56,32,14,30.09,29.95,12,2,13,0.00
2012-10-9,89.9,75.3,57.8,45.0,36.3,28.0,53,27,11,30.09,29.94,7,2,10,0.00
2012-10-10,89.4,73.4,53.7,45.0,39.5,33.0,57,32,16,30.11,29.90,11,2,14,0.00
2012-10-11,81.1,71.3,59.3,58.0,47.8,38.0,64,45,27,29.98,29.89,7,2,11,0.01
2012-10-12,75.3,66.7,55.9,53.0,43.4,40.0,63,44,29,30.16,29.96,12,4,18,0.00
2012-10-13,78.5,63.5,46.1,42.0,38.2,36.0,73,42,24,30.26,30.11,10,3,14,0.00
2012-10-14,89.1,70.7,45.5,42.0,33.8,27.0,67,32,11,30.21,30.03,8,3,20,0.00
2012-10-15,91.9,75.2,56.5,41.0,28.6,20.0,40,20,8,30.06,29.90,10,2,13,0.00
2012-10-16,89.7,69.6,49.3,34.0,29.6,23.0,47,25,9,30.01,29.86,8,2,11,0.00
2012-10-17,89.1,70.6,50.7,43.0,35.6,28.0,52,30,14,30.05,29.92,11,3,14,0.00
2012-10-18,86.5,74.0,60.0,60.0,52.9,37.0,81,50,34,30.12,29.98,15,4,18,0.00
2012-10-19,90.2,73.6,55.7,51.0,43.4,30.0,71,39,12,30.05,29.87,7,2,11,0.00
2012-10-20,89.1,73.3,55.1,46.0,42.0,39.0,57,35,19,29.97,29.83,12,2,15,0.00
2012-10-21,85.9,70.7,54.3,48.0,42.0,36.0,67,39,17,29.98,29.87,10,3,16,0.00
2012-10-22,84.3,68.1,49.8,46.0,40.2,37.0,64,39,20,30.05,29.94,8,2,11,0.00
2012-10-23,85.6,69.3,50.3,47.0,42.5,38.0,68,41,22,30.02,29.89,7,2,12,0.00
2012-10-24,83.5,68.9,52.9,47.0,39.5,27.0,67,37,21,30.04,29.92,17,4,19,0.00
2012-10-25,80.5,62.4,44.1,32.0,25.4,16.0,54,28,11,30.14,30.01,8,3,12,0.00
2012-10-26,83.1,62.1,40.7,27.0,22.6,20.0,48,25,10,30.15,29.99,10,3,14,0.00
2012-10-27,84.6,70.4,54.2,34.0,29.8,22.0,37,23,13,30.06,29.93,18,4,24,0.00
2012-10-28,88.8,68.2,47.3,37.0,31.9,29.0,55,29,12,30.14,30.01,9,2,13,0.00
2012-10-29,89.8,68.6,48.7,37.0,33.0,29.0,56,30,12,30.21,30.07,10,2,15,0.00
2012-10-30,87.9,65.4,46.5,38.0,32.0,22.0,57,33,9,30.19,30.04,8,2,12,0.00
2012-10-31,87.3,66.8,47.0,36.0,29.1,22.0,51,28,10,30.15,30.01,8,2,10,0.00
2012-11-1,87.0,66.7,45.9,32.0,28.9,26.0,51,27,11,30.11,29.96,7,2,10,0.00
2012-11-2,83.0,64.7,47.2,39.0,33.7,27.0,52,34,19,30.08,29.95,10,2,12,0.00
2012-11-3,83.2,65.2,46.7,42.0,36.7,34.0,65,38,19,30.16,30.05,9,2,11,0.00
2012-11-4,85.9,65.4,45.1,38.0,34.7,32.0,65,36,16,30.22,30.11,13,2,13,0.00
2012-11-5,88.4,66.2,45.5,36.0,29.7,25.0,58,30,10,30.24,30.09,11,2,11,0.00
2012-11-6,89.0,65.8,45.7,31.0,27.2,22.0,49,27,9,30.24,30.09,7,2,11,0.00
2012-11-7,89.8,67.6,45.8,33.0,29.2,26.0,58,27,11,30.18,29.99,8,2,15,0.00
2012-11-8,83.2,68.7,56.9,47.0,36.4,29.0,60,34,14,30.05,29.93,16,3,26,0.00
2012-11-9,78.3,66.8,58.0,59.0,50.6,45.0,91,59,38,30.02,29.83,21,5,27,0.14
2012-11-10,62.5,54.0,47.3,50.0,35.3,26.0,87,52,28,30.14,29.86,16,6,26,0.03
2012-11-11,60.0,48.2,34.9,30.0,24.4,18.0,76,43,20,30.37,30.15,7,2,10,0.00
2012-11-12,69.3,54.1,32.6,25.0,16.6,11.0,69,30,11,30.36,30.14,21,6,24,0.00
2012-11-13,74.3,55.5,36.5,25.0,19.0,13.0,58,27,10,30.19,30.04,7,2,12,0.00
2012-11-14,81.7,59.8,38.6,24.0,16.6,4.0,48,24,5,30.15,30.01,5,2,8,0.00
2012-11-15,77.5,58.5,39.8,35.0,26.1,21.0,54,32,15,30.14,30.05,5,1,7,0.00
2012-11-16,78.6,60.4,48.0,39.0,28.8,17.0,56,34,10,30.13,30.04,8,2,11,0.00
2012-11-17,77.0,62.1,47.3,49.0,35.8,28.0,62,39,25,30.14,30.03,8,2,11,0.00
2012-11-18,76.4,64.6,52.4,50.0,46.2,42.0,82,54,32,30.14,30.02,7,2,10,0.00
2012-11-19,76.9,60.6,45.2,47.0,41.4,35.0,82,53,28,30.22,30.12,5,2,11,0.00
2012-11-20,79.8,61.3,40.9,44.0,36.4,34.0,80,45,20,30.18,30.02,11,2,14,0.00
2012-11-21,81.3,63.7,49.1,42.0,38.0,34.0,67,41,23,30.06,29.95,5,2,9,0.00
2012-11-22,80.0,60.3,41.4,38.0,33.2,29.0,70,41,16,30.17,30.03,5,2,9,0.00
2012-11-23,84.4,64.2,40.7,36.0,31.4,28.0,65,34,14,30.23,30.10,17,5,23,0.00
2012-11-24,82.8,69.7,54.5,36.0,33.0,30.0,44,27,17,30.16,29.92,13,4,18,0.00
2012-11-25,81.6,61.0,43.4,39.0,29.9,14.0,63,36,8,30.00,29.85,12,2,12,0.00
2012-11-26,78.1,58.0,38.5,31.0,26.6,22.0,58,33,14,30.16,29.97,6,2,8,0.00
2012-11-27,82.6,60.9,39.6,33.0,28.8,25.0,60,34,12,30.23,30.07,6,2,11,0.00
2012-11-28,79.0,60.4,43.6,39.0,33.8,28.0,61,39,21,30.20,30.07,6,2,11,0.00
2012-11-29,74.9,57.1,40.3,38.0,33.5,30.0,72,44,22,30.23,30.12,8,2,12,0.00
2012-11-30,75.5,56.4,39.6,41.0,35.5,30.0,71,48,25,30.20,30.06,5,2,8,0.00
2012-12-1,75.8,56.1,38.3,40.0,34.6,29.0,79,49,20,30.17,30.05,6,2,8,0.00
2012-12-2,77.3,56.2,38.1,35.0,30.4,22.0,67,42,13,30.15,30.03,8,1,10,0.00
2012-12-3,73.4,50.7,42.6,38.0,33.5,30.0,65,53,28,30.17,30.08,7,2,9,0.00
2012-12-4,77.4,60.9,39.6,42.0,37.8,32.0,76,45,25,30.28,30.14,7,2,9,0.00
2012-12-5,81.4,60.6,42.7,37.0,32.4,28.0,69,40,16,30.17,29.98,5,2,9,0.00
2012-12-6,77.3,58.3,40.8,36.0,31.9,27.0,64,40,20,30.02,29.84,7,2,12,0.00
2012-12-7,73.9,56.6,39.8,38.0,33.7,30.0,68,45,26,29.98,29.88,10,2,12,0.00
2012-12-8,71.3,54.0,37.9,40.0,32.9,30.0,75,49,23,30.01,29.91,11,2,11,0.00
2012-12-9,69.1,52.8,35.5,34.0,27.0,19.0,73,42,17,30.13,29.99,11,3,15,0.00
2012-12-10,63.1,50.0,37.5,20.0,16.1,10.0,48,27,16,30.16,30.04,9,3,12,0.00
2012-12-11,66.9,45.7,27.2,17.0,13.1,9.0,54,30,13,30.18,30.05,6,2,9,0.00
2012-12-12,71.7,49.8,28.4,28.0,19.6,10.0,51,33,14,30.14,29.99,5,1,8,0.00
2012-12-13,71.9,55.4,38.1,52.0,35.4,23.0,92,51,21,30.04,29.75,18,4,21,0.42
2012-12-14,54.7,48.1,43.0,52.0,43.4,40.0,92,84,69,30.11,29.74,15,3,27,0.29
2012-12-15,56.9,50.3,46.0,47.0,44.0,41.0,90,79,58,30.12,30.01,16,2,18,0.05
2012-12-16,56.1,49.0,38.4,46.0,39.5,31.0,93,72,42,30.23,30.06,9,3,14,0.03
2012-12-17,61.2,44.6,32.5,41.0,36.2,31.0,94,75,40,30.28,30.07,7,1,10,0.00
2012-12-18,68.1,51.1,35.2,45.0,40.0,33.0,94,70,38,30.06,29.80,12,2,22,0.00
2012-12-19,57.5,45.9,34.4,46.0,34.9,28.0,87,67,44,30.38,29.80,19,5,35,0.16
2012-12-20,63.9,47.3,28.6,33.0,22.8,11.0,93,49,16,30.41,30.21,15,4,25,0.00
2012-12-21,69.6,56.7,42.5,29.0,18.7,14.0,45,24,13,30.22,30.06,10,3,13,0.00
2012-12-22,71.2,55.7,45.2,41.0,35.3,28.0,79,49,23,30.16,30.06,8,2,12,0.00
2012-12-23,67.5,50.6,36.9,42.0,37.0,30.0,92,65,26,30.20,30.05,6,1,8,0.00
2012-12-24,62.7,51.0,39.3,42.0,38.0,36.0,87,64,38,30.11,29.93,9,3,17,0.00
2012-12-25,56.5,49.4,41.2,42.0,34.4,27.0,87,59,36,30.15,30.03,9,2,12,0.00
2012-12-26,65.0,48.9,36.0,35.0,27.9,15.0,84,51,15,30.06,29.88,9,2,11,0.00
2012-12-27,55.2,42.0,29.9,35.0,30.8,27.0,88,67,36,30.14,29.92,11,2,29,0.00
2012-12-28,56.2,41.9,28.3,33.0,29.1,25.0,91,64,35,30.26,30.14,7,2,9,0.00
2012-12-29,53.9,36.4,30.2,28.0,25.6,23.0,82,67,33,30.22,30.02,3,1,7,0.00
2012-12-30,59.8,45.2,34.3,40.0,30.7,23.0,92,62,25,30.05,29.85,13,3,23,0.25
2012-12-31,49.1,41.2,32.0,42.0,36.6,30.0,94,84,55,30.30,30.05,9,2,18,0.16
2013-1-1,53.9,39.5,27.8,34.0,28.7,23.0,93,69,32,30.35,30.19,7,1,10,0.01